Time;durP1;ratioP1;P1;durP2;ratioP2;P2;SDS_P1;SDS_P2;PMS_P1;PMS_P2;Temp;Humidity;BMP_temperature;BMP_pressure;BME280_temperature;BME280_humidity;BME280_pressure;Samples;Min_cycle;Max_cycle;Signal;HPM_P1;HPM_P2
2022/04/06 00:00:37;;;;;;;2.90;1.50;;;-1.70;1.00;;;-1.36;79.07;97581.72;5020779;28;129926;-63
2022/04/06 00:03:06;;;;;;;3.50;1.25;;;-1.80;1.00;;;-1.24;78.01;97589.34;5001478;28;130488;-63
2022/04/06 00:05:35;;;;;;;4.63;1.80;;;-1.70;1.00;;;-1.33;78.46;97586.50;5006432;28;119421;-64
2022/04/06 00:08:04;;;;;;;2.95;1.65;;;-1.80;1.00;;;-1.37;78.86;97585.47;5002954;28;119642;-63
2022/04/06 00:10:33;;;;;;;4.50;1.55;;;-1.90;1.00;;;-1.35;78.41;97599.28;5020333;28;130108;-64
2022/04/06 00:13:01;;;;;;;5.68;1.50;;;-2.00;1.00;;;-1.38;78.68;97587.34;5021230;28;129502;-65
2022/04/06 00:15:30;;;;;;;3.65;1.67;;;-2.00;1.00;;;-1.46;79.76;97580.75;5005932;28;119246;-64
2022/04/06 00:17:59;;;;;;;2.75;1.45;;;-2.00;1.00;;;-1.46;79.53;97578.09;5020979;28;120013;-64
2022/04/06 00:20:29;;;;;;;5.28;1.83;;;-2.00;1.00;;;-1.52;80.24;97579.19;5020290;28;130800;-64
2022/04/06 00:22:58;;;;;;;2.38;1.20;;;-2.00;1.00;;;-1.54;80.71;97586.69;5020471;28;130378;-64
2022/04/06 00:25:27;;;;;;;3.03;1.52;;;-2.00;1.00;;;-1.54;80.97;97576.03;5020926;28;119736;-64
2022/04/06 00:27:55;;;;;;;3.63;1.50;;;-2.00;1.00;;;-1.45;80.38;97573.56;5005959;28;119266;-64
2022/04/06 00:30:24;;;;;;;3.42;1.60;;;-2.00;1.00;;;-1.47;80.46;97568.50;5005006;28;129812;-65
2022/04/06 00:32:52;;;;;;;3.80;1.63;;;-2.00;1.00;;;-1.51;80.80;97575.47;5020507;28;129448;-64
2022/04/06 00:35:31;;;;;;;2.50;1.50;;;-2.00;1.00;;;-1.61;82.42;97572.88;5020903;28;119606;-65
2022/04/06 00:38:03;;;;;;;3.50;1.88;;;-1.90;1.00;;;-1.54;82.94;97570.72;5029187;27;119035;-64
2022/04/06 00:40:33;;;;;;;4.70;1.73;;;-1.90;1.00;;;-1.57;84.02;97568.63;5022255;27;130610;-64
2022/04/06 00:43:06;;;;;;;3.78;1.80;;;-1.90;1.00;;;-1.56;84.60;97578.16;5040549;27;129365;-64
2022/04/06 00:45:35;;;;;;;4.60;2.00;;;-1.90;1.00;;;-1.55;85.21;97568.34;5022937;27;122047;-64
2022/04/06 00:48:04;;;;;;;4.22;1.80;;;-1.90;1.00;;;-1.55;86.45;97561.13;5025477;27;121689;-64
2022/04/06 00:50:34;;;;;;;3.28;1.60;;;-1.90;1.00;;;-1.49;86.58;97569.88;5040126;27;129858;-63
2022/04/06 00:53:05;;;;;;;2.75;1.60;;;-1.90;1.00;;;-1.43;87.34;97565.28;5040063;27;130792;-63
2022/04/06 00:55:37;;;;;;;5.50;2.03;;;-1.80;1.00;;;-1.42;87.23;97565.00;5022375;27;119558;-64
2022/04/06 00:58:07;;;;;;;2.78;1.52;;;-1.70;1.00;;;-1.37;87.17;97562.31;5040566;27;119859;-64
2022/04/06 01:00:37;;;;;;;3.88;1.80;;;-1.80;1.00;;;-1.34;86.55;97556.44;5039762;27;130914;-64
2022/04/06 01:03:05;;;;;;;4.45;1.95;;;-1.90;1.00;;;-1.38;87.15;97546.63;5040581;27;130946;-63
2022/04/06 01:05:34;;;;;;;5.40;2.20;;;-2.00;1.00;;;-1.39;87.29;97556.47;5040076;27;119869;-64
2022/04/06 01:08:05;;;;;;;4.55;2.00;;;-2.10;1.00;;;-1.42;87.10;97561.56;5040347;27;119678;-64
2022/04/06 01:10:33;;;;;;;6.05;2.65;;;-2.20;1.00;;;-1.52;88.13;97555.25;5038540;27;129843;-63
2022/04/06 01:13:03;;;;;;;4.80;2.38;;;-2.20;1.00;;;-1.56;88.51;97556.88;5039847;27;129576;-63
2022/04/06 01:15:33;;;;;;;5.75;2.53;;;-2.20;1.00;;;-1.56;88.83;97545.44;5040207;27;119800;-62
2022/04/06 01:18:02;;;;;;;5.35;2.40;;;-2.30;1.00;;;-1.58;88.85;97548.38;5040199;27;120631;-62
2022/04/06 01:20:31;;;;;;;5.57;2.38;;;-2.30;1.00;;;-1.61;89.19;97543.63;5041307;27;130005;-63
2022/04/06 01:23:03;;;;;;;4.13;2.33;;;-2.40;1.00;;;-1.56;90.49;97546.25;5039539;27;129658;-64
2022/04/06 01:25:35;;;;;;;4.68;2.50;;;-2.30;1.00;;;-1.56;90.32;97540.91;5040145;27;119655;-63
2022/04/06 01:28:03;;;;;;;6.03;2.47;;;-2.30;1.00;;;-1.58;91.13;97542.28;5040165;27;120215;-62
2022/04/06 01:30:32;;;;;;;6.65;2.53;;;-2.30;1.00;;;-1.62;92.67;97552.72;5039390;27;129849;-65
2022/04/06 01:33:05;;;;;;;5.53;2.90;;;-2.20;1.00;;;-1.64;94.36;97549.50;5039797;27;129513;-62
2022/04/06 01:35:38;;;;;;;4.43;2.60;;;-2.10;1.00;;;-1.62;96.55;97539.41;5020076;27;122926;-64
2022/04/06 01:38:08;;;;;;;8.27;2.97;;;-1.80;1.00;;;-1.45;96.94;97547.75;5039613;27;122279;-67
2022/04/06 01:40:37;;;;;;;4.40;2.65;;;-1.70;1.00;;;-1.35;97.23;97551.41;5039534;27;129979;-64
2022/04/06 01:43:06;;;;;;;5.60;3.10;;;-1.70;1.00;;;-1.24;97.03;97547.56;5039524;27;129833;-65
2022/04/06 01:45:34;;;;;;;7.18;3.67;;;-1.60;1.00;;;-1.18;97.38;97546.41;5039415;27;119659;-62
2022/04/06 01:48:03;;;;;;;5.90;3.30;;;-1.50;1.00;;;-1.09;97.56;97544.72;5007175;27;120162;-64
2022/04/06 01:53:24;;;;;;;6.32;3.92;;;-1.40;5.90;;;-1.06;98.25;97531.91;4984158;27;129966;-63
2022/04/06 01:55:52;;;;;;;6.93;3.92;;;-1.40;6.70;;;-0.98;97.71;97533.94;5039247;27;119772;-63
2022/04/06 01:58:22;;;;;;;9.32;4.30;;;-1.40;6.40;;;-1.04;98.10;97524.44;5038407;27;119371;-64
2022/04/06 02:00:53;;;;;;;9.77;3.83;;;-1.40;7.80;;;-1.05;97.99;97528.97;5037808;27;129830;-64
2022/04/06 02:03:21;;;;;;;7.10;4.28;;;-1.40;9.60;;;-1.22;99.15;97529.41;5020919;27;130012;-65
2022/04/06 02:05:50;;;;;;;7.38;4.63;;;-1.40;12.30;;;-1.19;99.79;97520.88;5039459;27;119877;-65
2022/04/06 02:08:18;;;;;;;7.35;4.53;;;-1.50;13.60;;;-1.24;100.00;97512.16;5039441;27;119561;-64
2022/04/06 02:10:48;;;;;;;8.43;5.10;;;-1.50;18.20;;;-1.30;100.00;97512.19;5038992;27;129822;-65
2022/04/06 02:13:17;;;;;;;8.88;5.15;;;-1.50;22.70;;;-1.32;100.00;97518.91;5038177;27;129815;-64
2022/04/06 02:15:48;;;;;;;9.10;4.93;;;-1.50;25.30;;;-1.38;100.00;97514.69;5039450;27;119448;-63
2022/04/06 02:18:16;;;;;;;8.23;4.93;;;-1.50;30.90;;;-1.36;100.00;97512.53;5040010;27;120263;-65
2022/04/06 02:20:44;;;;;;;9.23;5.13;;;-1.50;34.60;;;-1.37;100.00;97510.94;5040735;27;129993;-64
2022/04/06 02:23:13;;;;;;;10.25;5.45;;;-1.50;39.60;;;-1.39;100.00;97507.78;5038502;27;129481;-64
2022/04/06 02:25:42;;;;;;;9.45;5.65;;;-1.60;41.90;;;-1.42;100.00;97503.03;5038001;27;122165;-65
2022/04/06 02:28:12;;;;;;;9.10;5.75;;;-1.50;52.00;;;-1.39;100.00;97505.13;5007700;27;120795;-65
2022/04/06 02:30:42;;;;;;;10.75;6.35;;;-1.50;53.00;;;-1.35;100.00;97498.16;5020539;27;129838;-64
2022/04/06 02:33:10;;;;;;;10.60;6.43;;;-1.50;63.70;;;-1.32;100.00;97505.59;5023747;27;128868;-64
2022/04/06 02:35:39;;;;;;;10.57;6.20;;;-1.50;69.00;;;-1.37;100.00;97498.44;5039056;27;119688;-64
2022/04/06 02:38:07;;;;;;;9.70;6.22;;;-1.40;75.80;;;-1.37;100.00;97505.63;5038848;27;119478;-64
2022/04/06 02:40:36;;;;;;;9.90;6.30;;;-1.50;77.50;;;-1.45;100.00;97493.72;5023621;27;129515;-65
2022/04/06 02:43:04;;;;;;;14.40;6.78;;;-1.50;84.50;;;-1.41;100.00;97500.09;5023992;27;128474;-64
2022/04/06 02:45:34;;;;;;;11.43;6.75;;;-1.50;86.00;;;-1.54;100.00;97493.56;5038940;27;119476;-63
2022/04/06 02:48:03;;;;;;;10.27;6.53;;;-1.50;92.80;;;-1.55;100.00;97494.63;5023699;27;118773;-63
2022/04/06 02:50:32;;;;;;;9.75;5.90;;;-1.50;95.00;;;-1.56;100.00;97495.69;5037000;27;130386;-65
2022/04/06 02:53:01;;;;;;;8.75;5.97;;;-1.50;97.80;;;-1.50;100.00;97497.22;5038729;27;129437;-64
2022/04/06 02:55:29;;;;;;;10.82;6.65;;;-1.50;97.50;;;-1.56;100.00;97495.69;5037400;27;119975;-64
2022/04/06 02:57:58;;;;;;;11.20;6.75;;;-1.50;99.90;;;-1.56;100.00;97493.03;5040501;27;119074;-63
2022/04/06 03:00:26;;;;;;;12.10;6.70;;;-1.50;99.90;;;-1.54;100.00;97490.09;5038213;27;130791;-64
2022/04/06 03:02:57;;;;;;;12.75;7.63;;;-1.50;99.90;;;-1.43;100.00;97488.13;5019948;27;129399;-64
2022/04/06 03:05:25;;;;;;;11.35;7.15;;;-1.40;99.90;;;-1.23;100.00;97487.13;5038669;27;119266;-65
2022/04/06 03:07:54;;;;;;;11.45;7.00;;;-1.30;99.90;;;-1.15;100.00;97481.97;5039098;27;119717;-63
2022/04/06 03:10:23;;;;;;;11.63;7.35;;;-1.20;99.90;;;-1.05;100.00;97480.25;5038205;27;129758;-63
2022/04/06 03:12:51;;;;;;;14.38;7.70;;;-1.10;99.90;;;-1.01;100.00;97481.25;5023181;27;129009;-64
2022/04/06 03:15:20;;;;;;;11.52;6.60;;;-1.00;99.90;;;-0.93;100.00;97480.66;5037038;27;123434;-67
2022/04/06 03:17:49;;;;;;;14.95;7.25;;;-1.00;99.90;;;-0.83;100.00;97483.16;5038544;27;122454;-64
2022/04/06 03:20:20;;;;;;;11.18;7.32;;;-1.00;99.90;;;-0.79;100.00;97489.53;5039089;27;130827;-65
2022/04/06 03:22:48;;;;;;;13.75;7.07;;;-1.00;99.90;;;-0.87;100.00;97481.34;5038285;27;129887;-64
2022/04/06 03:25:17;;;;;;;10.27;7.10;;;-1.10;99.90;;;-1.02;100.00;97482.34;5040718;27;119721;-64
2022/04/06 03:27:46;;;;;;;12.25;7.03;;;-1.00;99.90;;;-0.95;100.00;97485.44;5042125;27;119862;-63
2022/04/06 03:30:15;;;;;;;12.98;7.50;;;-1.00;99.90;;;-0.88;100.00;97490.44;5041348;27;131053;-62
2022/04/06 03:32:44;;;;;;;12.95;8.00;;;-1.00;99.90;;;-0.76;100.00;97478.28;5043622;27;129306;-63
2022/04/06 03:35:13;;;;;;;11.95;7.63;;;-1.00;99.90;;;-0.81;100.00;97482.88;5041896;27;120083;-61
2022/04/06 03:37:44;;;;;;;12.32;7.68;;;-0.90;99.90;;;-0.56;100.00;97485.22;5041680;27;119508;-62
2022/04/06 03:40:13;;;;;;;12.85;7.82;;;-0.70;99.90;;;-0.40;100.00;97485.78;5008279;27;128838;-62
2022/04/06 03:42:42;;;;;;;13.45;7.80;;;-0.60;99.90;;;-0.22;100.00;97478.06;5041452;27;129966;-61
2022/04/06 03:45:12;;;;;;;10.38;6.85;;;-0.50;99.90;;;0.03;100.00;97484.09;5026744;27;118661;-62
2022/04/06 03:47:44;;;;;;;11.55;7.15;;;-0.40;99.90;;;0.07;100.00;97483.22;5041658;27;119480;-63
2022/04/06 03:50:13;;;;;;;12.75;7.45;;;-0.30;99.90;;;0.13;100.00;97478.59;5041110;27;130340;-63
2022/04/06 03:52:43;;;;;;;12.43;7.50;;;-0.20;99.90;;;0.22;100.00;97489.38;5026270;27;128336;-74
2022/04/06 03:55:11;;;;;;;10.63;6.63;;;-0.10;99.90;;;0.33;100.00;97483.56;5026142;27;119153;-65
2022/04/06 03:57:40;;;;;;;12.40;7.38;;;0.00;98.20;;;0.45;100.00;97483.13;5041999;27;120062;-65
2022/04/06 04:00:12;;;;;;;11.95;7.05;;;0.00;89.20;;;0.46;100.00;97489.22;5038543;27;130283;-64
2022/04/06 04:02:41;;;;;;;11.75;6.00;;;0.10;70.00;;;0.63;99.79;97486.78;5009468;27;129876;-65
2022/04/06 04:05:10;;;;;;;12.15;6.43;;;0.20;57.80;;;0.73;98.69;97483.13;5024414;27;121457;-65
2022/04/06 04:07:39;;;;;;;10.63;6.13;;;0.30;39.40;;;0.80;97.98;97482.75;5039999;27;122053;-66
2022/04/06 04:10:11;;;;;;;11.07;6.18;;;0.30;28.50;;;0.91;97.33;97478.00;5040163;27;129476;-64
2022/04/06 04:12:40;;;;;;;10.90;6.30;;;0.40;22.30;;;0.88;97.18;97482.81;5022566;27;129360;-64
2022/04/06 04:15:09;;;;;;;8.98;5.97;;;0.40;9.10;;;0.88;96.98;97490.06;5040965;27;119632;-67
2022/04/06 04:17:38;;;;;;;9.15;5.88;;;0.40;1.70;;;0.94;96.04;97486.19;5040135;27;119482;-66
2022/04/06 04:20:09;;;;;;;9.98;5.68;;;0.50;1.00;;;0.85;96.43;97485.31;5040240;27;129960;-63
2022/04/06 04:22:37;;;;;;;10.80;6.00;;;0.50;1.00;;;0.96;96.42;97493.91;5022589;27;129786;-63
2022/04/06 04:25:10;;;;;;;7.93;5.47;;;0.50;1.00;;;1.12;95.26;97489.84;5040787;27;119451;-63
2022/04/06 04:27:39;;;;;;;10.20;5.82;;;0.60;1.00;;;1.20;94.84;97502.50;5025799;27;118513;-62
2022/04/06 04:30:10;;;;;;;7.93;5.50;;;0.60;1.00;;;1.11;94.63;97493.63;5039280;27;129548;-62
2022/04/06 04:32:39;;;;;;;8.75;5.63;;;0.60;1.00;;;1.23;94.02;97501.09;5024673;27;129693;-62
2022/04/06 04:35:08;;;;;;;7.80;5.10;;;0.60;1.00;;;1.28;93.41;97497.53;5040925;27;120273;-61
2022/04/06 04:37:37;;;;;;;9.20;5.28;;;0.70;1.00;;;1.30;93.54;97501.50;5025021;27;119250;-62
2022/04/06 04:40:10;;;;;;;9.38;5.15;;;0.70;1.00;;;1.19;92.89;97500.13;5022261;27;130374;-62
2022/04/06 04:42:38;;;;;;;8.98;5.53;;;0.70;1.00;;;1.24;93.27;97516.84;5025302;27;129283;-62
2022/04/06 04:45:10;;;;;;;9.10;5.38;;;0.80;1.00;;;1.29;92.95;97518.63;5025631;27;119182;-63
2022/04/06 04:47:39;;;;;;;8.00;5.00;;;0.80;1.00;;;1.55;92.25;97518.09;5022713;27;120335;-63
2022/04/06 04:50:09;;;;;;;7.25;5.22;;;0.90;1.00;;;1.68;90.86;97517.25;5022027;27;129752;-62
2022/04/06 04:52:38;;;;;;;7.93;4.75;;;1.00;1.00;;;1.61;91.10;97511.56;5008404;27;129120;-61
2022/04/06 04:55:09;;;;;;;10.07;5.50;;;1.00;1.00;;;1.51;91.16;97517.91;5038939;27;122091;-63
2022/04/06 04:57:38;;;;;;;9.10;4.55;;;0.90;1.00;;;1.48;90.98;97523.06;5022232;27;122056;-63
2022/04/06 05:00:09;;;;;;;8.65;4.97;;;0.90;1.00;;;1.42;91.42;97528.50;5039659;27;131084;-63
2022/04/06 05:02:37;;;;;;;7.28;4.47;;;0.90;1.00;;;1.44;90.95;97520.19;5039799;27;129847;-65
2022/04/06 05:05:08;;;;;;;8.45;5.38;;;0.80;1.00;;;1.56;90.57;97525.81;5039174;27;119396;-63
2022/04/06 05:07:37;;;;;;;7.72;4.75;;;0.90;1.00;;;1.70;90.53;97527.66;5040248;27;119467;-62
2022/04/06 05:10:09;;;;;;;7.32;5.00;;;1.00;1.00;;;1.74;89.90;97536.66;5039880;27;130059;-62
2022/04/06 05:12:38;;;;;;;6.75;4.35;;;1.00;1.00;;;1.78;89.37;97525.06;5040080;27;129891;-63
2022/04/06 05:15:10;;;;;;;9.32;4.55;;;1.00;1.00;;;2.04;88.68;97529.03;5040252;27;120013;-63
2022/04/06 05:17:38;;;;;;;9.93;4.20;;;1.30;1.00;;;2.27;87.56;97529.84;5021128;27;119288;-60
2022/04/06 05:20:09;;;;;;;10.50;5.18;;;1.40;1.00;;;2.40;86.92;97534.34;5037528;27;130346;-63
2022/04/06 05:22:38;;;;;;;7.20;4.22;;;1.50;1.00;;;2.30;86.47;97531.91;5023810;27;128969;-63
2022/04/06 05:25:10;;;;;;;7.95;4.38;;;1.40;1.00;;;2.32;86.54;97535.06;5038031;27;119655;-62
2022/04/06 05:27:46;;;;;;;11.30;4.20;;;1.40;1.00;;;2.53;85.13;97539.94;5021502;27;119404;-63
2022/04/06 05:30:16;;;;;;;9.57;3.95;;;1.50;1.00;;;2.60;84.90;97545.63;5039701;27;129968;-63
2022/04/06 05:32:45;;;;;;;8.65;4.50;;;1.60;1.00;;;2.72;84.64;97548.53;5039690;27;130135;-63
2022/04/06 05:35:14;;;;;;;8.25;3.90;;;1.70;1.00;;;2.72;83.91;97548.53;5039733;27;120314;-62
2022/04/06 05:37:44;;;;;;;8.30;3.78;;;1.70;1.00;;;2.55;84.60;97543.88;5021776;27;119544;-62
2022/04/06 05:40:17;;;;;;;6.55;3.40;;;1.80;1.00;;;2.92;83.61;97546.44;5039231;27;130278;-61
2022/04/06 05:42:46;;;;;;;7.47;3.55;;;1.90;1.00;;;3.32;82.09;97554.44;5039692;27;130734;-63
2022/04/06 05:45:14;;;;;;;7.55;3.80;;;2.10;1.00;;;3.88;80.75;97549.34;5038652;27;122516;-64
2022/04/06 05:47:43;;;;;;;7.00;3.47;;;2.40;1.00;;;3.83;79.51;97557.53;5038364;27;121970;-61
2022/04/06 05:50:14;;;;;;;6.72;3.10;;;2.30;1.00;;;3.59;79.62;97548.81;5039409;27;129436;-61
2022/04/06 05:52:44;;;;;;;6.20;3.40;;;2.10;1.00;;;3.71;80.09;97555.47;5041646;27;129470;-62
2022/04/06 05:55:14;;;;;;;6.63;3.40;;;2.30;1.00;;;3.87;78.96;97553.91;5024869;27;119037;-63
2022/04/06 05:57:42;;;;;;;8.98;4.82;;;2.50;1.00;;;4.17;78.08;97572.88;5039764;27;119528;-61
2022/04/06 06:00:13;;;;;;;6.78;3.10;;;2.60;1.00;;;4.18;77.69;97565.63;5039284;27;129888;-61
2022/04/06 06:02:43;;;;;;;7.50;3.40;;;2.60;1.00;;;4.52;77.20;97564.81;5039565;27;129283;-62
2022/04/06 06:05:11;;;;;;;7.63;3.35;;;2.80;1.00;;;5.09;75.40;97568.28;5039330;27;119537;-62
2022/04/06 06:07:39;;;;;;;7.05;3.38;;;3.30;1.00;;;5.52;73.29;97565.38;5039282;27;119316;-61
2022/04/06 06:10:10;;;;;;;6.93;3.40;;;3.50;1.00;;;5.54;72.51;97568.53;5037484;27;130051;-61
2022/04/06 06:12:40;;;;;;;4.60;2.85;;;3.50;1.00;;;5.22;71.88;97572.66;5038721;27;130113;-62
2022/04/06 06:15:09;;;;;;;7.85;3.00;;;3.30;1.00;;;5.00;73.01;97587.13;5038443;27;120051;-62
2022/04/06 06:17:38;;;;;;;17.08;3.72;;;3.10;1.00;;;4.76;74.07;97588.44;5039353;27;119322;-62
2022/04/06 06:20:08;;;;;;;10.93;4.63;;;2.90;1.00;;;4.80;74.44;97586.72;5039272;27;129966;-61
2022/04/06 06:22:38;;;;;;;5.90;3.58;;;3.00;1.00;;;4.12;75.47;97591.81;5038974;27;129755;-62
2022/04/06 06:25:08;;;;;;;7.93;3.50;;;2.70;1.00;;;4.13;76.67;97593.41;5039222;27;119984;-63
2022/04/06 06:27:44;;;;;;;6.47;3.05;;;2.70;1.00;;;4.24;76.27;97597.38;5021195;27;119505;-61
2022/04/06 06:30:14;;;;;;;6.65;3.05;;;2.70;1.00;;;4.27;75.95;97595.91;5038860;27;130412;-61
2022/04/06 06:32:43;;;;;;;7.80;3.15;;;2.80;1.00;;;4.36;76.48;97606.66;5023746;27;128865;-62
2022/04/06 06:35:12;;;;;;;6.90;3.00;;;3.00;1.00;;;4.08;76.89;97602.41;5037813;27;121651;-62
2022/04/06 06:37:47;;;;;;;8.50;3.33;;;2.70;1.00;;;3.85;78.11;97593.69;5039087;27;121848;-61
2022/04/06 06:40:17;;;;;;;6.57;3.30;;;2.60;1.00;;;3.59;79.88;97601.69;5039129;27;129655;-63
2022/04/06 06:42:47;;;;;;;7.45;3.63;;;2.40;1.00;;;3.28;81.91;97607.13;5038818;27;129539;-60
2022/04/06 06:45:16;;;;;;;8.88;3.50;;;2.40;1.00;;;3.12;82.38;97614.78;5039132;27;119949;-61
2022/04/06 06:47:45;;;;;;;9.63;3.40;;;2.10;1.00;;;2.95;83.27;97613.59;5042108;27;119761;-60
2022/04/06 06:50:17;;;;;;;8.13;3.58;;;2.10;1.00;;;2.74;84.95;97612.50;5038521;27;130011;-63
2022/04/06 06:52:46;;;;;;;7.28;3.28;;;2.00;1.00;;;2.83;85.16;97618.72;5023917;27;129881;-62
2022/04/06 06:55:15;;;;;;;7.88;3.80;;;2.10;1.00;;;3.02;84.05;97616.63;5020843;27;120621;-62
2022/04/06 06:57:44;;;;;;;7.45;3.15;;;2.10;1.00;;;2.99;84.21;97624.47;5020639;27;119436;-61
2022/04/06 07:00:16;;;;;;;6.03;3.20;;;2.10;1.00;;;2.96;84.32;97628.56;5039520;27;131574;-62
2022/04/06 07:02:45;;;;;;;7.55;3.70;;;2.20;1.00;;;3.14;84.32;97629.44;5041840;27;129412;-62
2022/04/06 07:05:14;;;;;;;7.78;3.35;;;2.30;1.00;;;3.16;84.42;97632.59;5045047;27;121527;-62
2022/04/06 07:07:50;;;;;;;6.95;3.70;;;2.20;1.00;;;3.12;83.90;97630.88;5042344;27;119608;-62
2022/04/06 07:10:19;;;;;;;7.13;3.55;;;2.30;1.00;;;3.26;83.61;97642.28;5041879;27;130064;-62
2022/04/06 07:12:48;;;;;;;6.97;3.60;;;2.30;1.00;;;3.06;84.10;97640.91;5038847;27;129472;-65
2022/04/06 07:15:18;;;;;;;6.70;3.22;;;2.20;1.00;;;2.86;83.95;97640.31;5022277;27;120029;-62
2022/04/06 07:17:52;;;;;;;6.45;3.10;;;2.10;1.00;;;2.83;84.60;97651.66;5021967;28;119534;-62
2022/04/06 07:20:21;;;;;;;9.38;3.60;;;2.10;1.00;;;2.75;84.38;97655.06;5022892;28;130011;-62
2022/04/06 07:22:50;;;;;;;6.65;3.03;;;2.10;1.00;;;2.70;84.75;97668.59;5021352;28;129337;-63
2022/04/06 07:25:20;;;;;;;6.75;3.13;;;2.10;1.00;;;2.79;84.85;97661.41;5020247;28;122503;-61
2022/04/06 07:27:48;;;;;;;4.80;2.80;;;2.10;1.00;;;2.61;84.94;97675.78;5020972;28;122077;-64
2022/04/06 07:30:18;;;;;;;8.50;3.15;;;2.10;1.00;;;2.78;84.98;97681.25;5006521;28;129621;-62
2022/04/06 07:32:47;;;;;;;7.22;3.45;;;2.10;1.00;;;2.81;85.03;97691.34;5020972;28;130101;-61
2022/04/06 07:35:16;;;;;;;6.18;2.90;;;2.10;1.00;;;3.05;84.21;97690.25;5003255;28;119952;-62
2022/04/06 07:37:48;;;;;;;7.13;3.28;;;2.30;1.00;;;3.28;82.18;97692.91;5021120;28;119318;-61
2022/04/06 07:40:19;;;;;;;7.00;2.85;;;2.50;1.00;;;3.57;80.75;97698.56;5006206;28;129916;-62
2022/04/06 07:42:49;;;;;;;10.77;2.92;;;2.70;1.00;;;4.20;79.09;97697.66;5021505;28;129943;-61
2022/04/06 07:45:21;;;;;;;4.85;2.83;;;3.00;1.00;;;4.67;75.59;97701.34;5021435;28;120408;-61
2022/04/06 07:47:51;;;;;;;7.15;2.88;;;3.30;1.00;;;4.93;74.68;97705.91;5021124;28;119841;-63
2022/04/06 07:50:22;;;;;;;5.82;3.20;;;3.40;1.00;;;4.84;73.38;97700.53;5019330;28;130234;-61
2022/04/06 07:52:52;;;;;;;6.38;3.17;;;3.30;1.00;;;5.14;71.87;97699.84;5021055;28;130194;-62
2022/04/06 07:55:21;;;;;;;8.18;3.05;;;3.50;1.00;;;6.17;69.47;97696.31;5006631;28;120542;-62
2022/04/06 07:57:49;;;;;;;8.95;3.88;;;4.10;1.00;;;6.74;66.50;97709.25;5006383;28;117771;-62
2022/04/06 08:00:20;;;;;;;6.85;3.15;;;4.30;1.00;;;7.13;63.46;97701.75;5020830;28;129899;-60
2022/04/06 08:02:51;;;;;;;6.15;3.13;;;4.70;1.00;;;7.69;62.75;97692.44;5020794;28;129479;-63
2022/04/06 08:05:20;;;;;;;7.07;3.15;;;5.20;1.00;;;7.12;61.67;97694.81;5021315;28;119376;-62
2022/04/06 08:07:50;;;;;;;6.88;3.47;;;4.80;1.00;;;8.02;60.13;97703.13;5021435;28;119659;-63
2022/04/06 08:10:19;;;;;;;4.88;2.80;;;5.30;1.00;;;7.86;59.91;97707.63;5020081;28;130351;-64
2022/04/06 08:12:49;;;;;;;9.63;3.60;;;5.20;1.00;;;7.73;60.94;97717.66;5020100;28;129458;-63
2022/04/06 08:15:19;;;;;;;9.43;3.60;;;5.10;1.00;;;7.89;60.50;97713.16;5021608;28;121951;-62
2022/04/06 08:17:49;;;;;;;8.60;3.20;;;5.40;1.00;;;7.60;59.45;97722.22;5002675;28;122409;-65
2022/04/06 08:20:19;;;;;;;5.22;2.80;;;5.30;1.00;;;6.78;61.94;97710.16;5000860;27;128905;-63
2022/04/06 08:22:50;;;;;;;8.30;3.55;;;4.70;1.00;;;6.43;64.29;97720.41;5019833;27;129728;-61
2022/04/06 08:25:18;;;;;;;5.72;3.00;;;4.50;1.00;;;6.06;64.45;97720.94;5022385;28;119662;-63
2022/04/06 08:27:47;;;;;;;5.40;3.53;;;4.30;1.00;;;5.59;67.07;97729.00;5020743;28;119335;-61
2022/04/06 08:30:16;;;;;;;11.90;3.10;;;4.20;1.00;;;5.81;66.76;97738.75;5020014;28;130189;-62
2022/04/06 08:32:47;;;;;;;5.65;3.13;;;4.30;1.00;;;5.43;66.51;97731.44;5020705;28;129620;-61
2022/04/06 08:35:17;;;;;;;8.82;5.22;;;4.10;1.00;;;5.19;67.20;97740.03;5022331;28;119163;-62
2022/04/06 08:37:45;;;;;;;8.88;4.30;;;3.80;1.00;;;4.84;68.54;97734.69;5022080;28;120070;-63
2022/04/06 08:40:14;;;;;;;6.10;3.63;;;3.70;1.00;;;4.55;69.86;97744.16;5003756;28;129571;-66
2022/04/06 08:42:43;;;;;;;5.60;3.15;;;3.60;1.00;;;4.42;71.58;97750.44;5019949;28;130034;-62
2022/04/06 08:45:12;;;;;;;5.75;3.63;;;3.40;1.00;;;4.40;72.25;97749.97;5021484;28;118747;-65
2022/04/06 08:47:42;;;;;;;9.63;3.35;;;3.40;1.00;;;4.62;70.69;97747.16;5020465;28;119527;-63
2022/04/06 08:50:12;;;;;;;8.88;3.40;;;3.60;1.00;;;5.13;69.87;97746.69;5021650;28;130003;-62
2022/04/06 08:52:42;;;;;;;8.05;3.00;;;3.80;1.00;;;5.34;67.75;97744.13;5019999;28;130912;-64
2022/04/06 08:55:12;;;;;;;6.45;3.22;;;3.70;1.00;;;5.49;67.91;97753.59;5020241;28;119677;-62
2022/04/06 08:57:42;;;;;;;6.30;3.17;;;4.00;1.00;;;5.50;67.41;97755.16;5020778;28;119756;-64
2022/04/06 09:00:15;;;;;;;6.63;3.47;;;4.10;1.00;;;5.33;68.59;97762.16;5020679;28;131218;-62
2022/04/06 09:02:44;;;;;;;6.63;3.78;;;3.90;1.00;;;5.15;68.98;97760.59;5020404;28;129708;-62
2022/04/06 09:05:14;;;;;;;6.07;3.60;;;3.70;1.00;;;5.15;69.67;97761.38;5018205;28;122452;-61
2022/04/06 09:07:44;;;;;;;8.23;3.85;;;3.70;1.00;;;5.07;69.09;97758.72;5017592;27;122085;-61
2022/04/06 09:10:14;;;;;;;7.72;3.92;;;3.60;1.00;;;5.35;68.55;97762.63;5019786;28;129920;-62
2022/04/06 09:12:42;;;;;;;8.90;3.53;;;3.80;1.00;;;5.87;66.78;97763.59;5019480;28;129950;-62
2022/04/06 09:15:14;;;;;;;7.50;3.67;;;4.20;1.00;;;6.01;66.41;97774.97;5020050;28;120540;-62
2022/04/06 09:17:46;;;;;;;6.82;3.40;;;4.30;1.00;;;6.21;65.29;97767.28;5019701;28;119483;-62
2022/04/06 09:20:20;;;;;;;10.20;4.00;;;4.50;1.00;;;6.45;65.11;97767.47;5026208;27;129445;-64
2022/04/06 09:22:49;;;;;;;8.15;3.75;;;4.70;1.00;;;6.76;63.72;97769.03;5019860;27;129395;-63
2022/04/06 09:25:20;;;;;;;5.20;3.22;;;4.90;1.00;;;7.04;62.21;97775.78;5038384;27;119342;-63
2022/04/06 09:27:50;;;;;;;6.15;3.50;;;5.20;1.00;;;7.57;59.96;97771.47;5022387;28;102761;-62
2022/04/06 09:30:19;;;;;;;6.03;3.42;;;5.60;1.00;;;7.66;58.56;97784.91;5018831;28;131502;-64
2022/04/06 09:32:48;;;;;;;7.45;3.20;;;5.50;1.00;;;8.34;57.60;97780.94;5019403;28;130044;-61
2022/04/06 09:35:30;;;;;;;7.15;3.50;;;5.60;1.00;;;8.45;57.23;97773.97;5022430;27;119343;-62
2022/04/06 09:38:13;;;;;;;8.27;3.65;;;5.80;1.00;;;7.71;56.96;97772.00;5021507;28;119103;-64
2022/04/06 09:40:42;;;;;;;5.53;3.35;;;5.30;1.00;;;7.99;58.47;97776.72;5021163;28;128597;-62
2022/04/06 09:43:25;;;;;;;8.10;3.83;;;5.70;1.00;;;7.62;57.66;97783.97;5019109;28;130262;-62
2022/04/06 09:48:54;;;;;;;6.90;3.55;;;5.10;1.00;;;6.68;60.56;97785.25;5019956;28;119932;-63
2022/04/06 09:51:25;;;;;;;8.30;4.22;;;4.90;1.00;;;6.45;62.10;97794.44;5018914;28;130125;-62
2022/04/06 09:53:55;;;;;;;8.50;4.03;;;4.80;1.00;;;6.17;63.17;97798.69;5019168;28;129804;-62
2022/04/06 09:56:24;;;;;;;6.65;3.80;;;4.60;1.00;;;6.29;62.63;97812.25;5017930;28;122066;-63
2022/04/06 09:58:53;;;;;;;6.97;4.63;;;4.70;1.00;;;6.44;61.56;97792.84;5019323;28;121827;-62
2022/04/06 10:01:22;;;;;;;10.68;3.88;;;4.70;1.00;;;6.50;62.00;97806.94;5018535;28;130684;-62
2022/04/06 10:03:53;;;;;;;7.18;4.13;;;4.90;1.00;;;6.58;61.85;97805.31;5018979;28;129527;-62
2022/04/06 10:06:24;;;;;;;7.32;3.83;;;4.90;1.00;;;6.67;61.24;97806.03;5019179;28;119735;-62
2022/04/06 10:08:53;;;;;;;7.57;3.83;;;5.00;1.00;;;7.01;60.62;97809.59;5018977;28;119238;-61
2022/04/06 10:11:22;;;;;;;6.22;3.75;;;5.20;1.00;;;7.01;59.50;97825.78;5018798;28;129779;-62
2022/04/06 10:13:53;;;;;;;10.13;4.07;;;5.20;1.00;;;7.49;58.15;97813.63;5017624;28;129661;-62
2022/04/06 10:16:22;;;;;;;5.85;3.70;;;5.60;1.00;;;7.72;58.31;97807.88;5019156;28;119729;-61
2022/04/06 10:18:51;;;;;;;6.95;3.88;;;5.70;1.00;;;7.48;58.05;97817.47;5019023;28;119480;-61
2022/04/06 10:21:27;;;;;;;5.80;3.22;;;5.30;1.00;;;7.65;57.39;97818.41;5037480;27;130506;-62
2022/04/06 10:24:19;;;;;;;6.53;3.50;;;5.60;1.00;;;7.58;57.63;97815.47;5040675;27;128188;-62
2022/04/06 10:27:01;;;;;;;6.18;3.60;;;5.60;1.00;;;7.74;57.08;97819.13;5038911;27;120795;-63
2022/04/06 10:29:30;;;;;;;8.40;3.92;;;5.70;1.00;;;8.33;55.90;97811.78;5038847;27;119318;-63
2022/04/06 10:31:59;;;;;;;9.00;4.22;;;6.00;1.00;;;8.55;55.39;97819.47;5038710;27;130681;-65
2022/04/06 10:34:31;;;;;;;9.10;3.85;;;6.20;1.00;;;8.87;53.38;97825.06;5037892;27;129554;-62
2022/04/06 10:37:11;;;;;;;7.85;3.90;;;6.10;1.00;;;9.00;52.41;97823.91;5024379;27;118688;-62
2022/04/06 10:39:59;;;;;;;7.68;3.63;;;6.00;1.00;;;8.92;53.06;97827.53;5039511;27;119166;-63